Time;durP1;ratioP1;P1;durP2;ratioP2;P2;SDS_P1;SDS_P2;PMS_P1;PMS_P2;Temp;Humidity;BMP_temperature;BMP_pressure;BME280_temperature;BME280_humidity;BME280_pressure;Samples;Min_cycle;Max_cycle;Signal;HPM_P1;HPM_P2
2021/09/18 00:02:22;;;;;;;1.13;0.95;;;25.50;51.00;;;;;;5049456;28;20123;-45
2021/09/18 00:04:49;;;;;;;1.63;1.00;;;25.50;51.00;;;;;;5048094;28;20052;-46
2021/09/18 00:07:16;;;;;;;1.50;1.40;;;25.50;51.00;;;;;;5048819;28;20033;-49
2021/09/18 00:09:43;;;;;;;5.03;1.30;;;25.50;51.00;;;;;;5048842;28;20132;-46
2021/09/18 00:12:12;;;;;;;1.42;0.60;;;25.50;51.00;;;;;;5048196;28;20550;-46
2021/09/18 00:14:39;;;;;;;0.80;0.80;;;25.50;51.00;;;;;;5050470;28;20049;-48
2021/09/18 00:17:07;;;;;;;3.38;1.73;;;25.50;51.00;;;;;;5047067;28;20044;-46
2021/09/18 00:19:35;;;;;;;1.33;0.88;;;25.50;51.00;;;;;;5048553;28;20128;-45
2021/09/18 00:22:02;;;;;;;1.95;0.47;;;25.50;50.90;;;;;;5048863;28;20041;-45
2021/09/18 00:24:29;;;;;;;1.25;0.65;;;25.40;50.90;;;;;;5048719;28;20041;-45
2021/09/18 00:27:08;;;;;;;0.93;0.82;;;25.50;51.00;;;;;;5047854;28;20115;-45
2021/09/18 00:29:36;;;;;;;0.93;0.93;;;25.40;51.00;;;;;;5049290;28;20515;-45
2021/09/18 00:32:04;;;;;;;0.90;0.85;;;25.40;51.00;;;;;;5048486;28;20099;-47
2021/09/18 00:34:31;;;;;;;2.47;0.70;;;25.40;51.00;;;;;;5048355;28;20099;-46
2021/09/18 00:36:58;;;;;;;1.60;0.98;;;25.40;51.00;;;;;;5047822;28;20140;-47
2021/09/18 00:39:25;;;;;;;0.77;0.77;;;25.40;51.00;;;;;;5048140;28;20041;-45
2021/09/18 00:41:52;;;;;;;1.95;0.50;;;25.40;51.10;;;;;;5045397;28;20574;-45
2021/09/18 00:44:20;;;;;;;0.57;0.57;;;25.40;51.00;;;;;;5046986;28;20424;-48
2021/09/18 00:46:51;;;;;;;0.88;0.88;;;25.40;51.00;;;;;;5047968;28;20033;-49
2021/09/18 00:49:18;;;;;;;0.63;0.55;;;25.40;51.00;;;;;;5046005;28;20056;-46
2021/09/18 00:51:46;;;;;;;0.70;0.70;;;25.40;51.00;;;;;;5045773;28;20132;-46
2021/09/18 00:54:14;;;;;;;5.97;1.33;;;25.40;51.00;;;;;;5048034;28;20047;-46
2021/09/18 00:56:43;;;;;;;1.10;1.00;;;25.40;51.10;;;;;;5049110;28;20037;-45
2021/09/18 00:59:10;;;;;;;0.75;0.75;;;25.40;51.00;;;;;;5047653;28;20044;-45
2021/09/18 01:01:37;;;;;;;1.77;0.93;;;25.40;51.00;;;;;;5048030;28;20039;-46
2021/09/18 01:04:06;;;;;;;2.13;0.70;;;25.40;51.10;;;;;;5046792;28;20069;-44
2021/09/18 01:06:33;;;;;;;1.10;1.08;;;25.40;51.00;;;;;;5045807;28;20045;-48
2021/09/18 01:09:00;;;;;;;1.10;0.88;;;25.30;51.00;;;;;;5047950;28;20144;-45
2021/09/18 01:11:28;;;;;;;0.75;0.65;;;25.40;51.10;;;;;;5047554;28;20076;-44
2021/09/18 01:13:55;;;;;;;1.95;0.95;;;25.40;51.10;;;;;;5047692;28;20114;-44
2021/09/18 01:16:23;;;;;;;0.93;0.93;;;25.40;51.00;;;;;;5047525;28;20119;-44
2021/09/18 01:18:51;;;;;;;2.65;0.93;;;25.30;50.90;;;;;;5047674;28;20037;-47
2021/09/18 01:21:20;;;;;;;1.23;0.80;;;25.30;50.90;;;;;;5047471;28;20488;-47
2021/09/18 01:23:48;;;;;;;0.93;0.70;;;25.30;50.90;;;;;;5048858;28;20051;-44
2021/09/18 01:26:15;;;;;;;0.90;0.75;;;25.30;50.90;;;;;;5047015;28;20044;-48
2021/09/18 01:28:42;;;;;;;1.20;1.10;;;25.30;51.00;;;;;;5047463;28;20134;-45
2021/09/18 01:31:10;;;;;;;1.42;0.63;;;25.30;51.00;;;;;;5047248;28;20036;-44
2021/09/18 01:33:37;;;;;;;3.38;0.85;;;25.30;51.00;;;;;;5047956;28;20411;-43
2021/09/18 01:36:04;;;;;;;0.93;0.68;;;25.30;51.00;;;;;;5047480;28;20041;-45
2021/09/18 01:38:31;;;;;;;1.10;1.00;;;25.30;51.00;;;;;;5047525;28;20600;-44
2021/09/18 01:41:00;;;;;;;1.05;0.88;;;25.30;51.00;;;;;;5046332;28;20033;-44
2021/09/18 01:43:29;;;;;;;1.60;0.65;;;25.30;51.60;;;;;;5047195;28;20068;-44
2021/09/18 01:45:56;;;;;;;2.10;0.65;;;25.30;51.10;;;;;;5047241;28;20571;-45
2021/09/18 01:48:24;;;;;;;0.90;0.35;;;25.30;51.10;;;;;;5046417;28;20051;-43
2021/09/18 01:50:54;;;;;;;1.50;0.73;;;25.30;51.10;;;;;;5048405;28;20051;-44
2021/09/18 01:53:24;;;;;;;1.90;0.82;;;25.30;51.10;;;;;;5047642;28;20053;-44
2021/09/18 01:55:52;;;;;;;3.80;0.98;;;25.30;51.10;;;;;;5045784;28;20049;-47
2021/09/18 01:58:21;;;;;;;0.80;0.80;;;25.30;51.20;;;;;;5046813;28;20406;-44
2021/09/18 02:00:52;;;;;;;0.95;0.95;;;25.30;51.20;;;;;;5046550;28;20037;-44
2021/09/18 02:03:20;;;;;;;1.90;1.10;;;25.30;51.20;;;;;;5046028;28;20124;-44
2021/09/18 02:05:48;;;;;;;3.08;1.67;;;25.20;51.10;;;;;;5032702;28;20433;-45
2021/09/18 02:08:15;;;;;;;1.10;0.68;;;25.20;51.10;;;;;;5044969;28;20509;-43
2021/09/18 02:10:42;;;;;;;0.95;0.70;;;25.20;51.10;;;;;;5046256;28;20246;-44
2021/09/18 02:13:11;;;;;;;0.80;0.73;;;25.30;51.20;;;;;;5046422;28;20102;-44
2021/09/18 02:15:40;;;;;;;4.88;0.50;;;25.20;51.10;;;;;;5046159;28;20037;-44
2021/09/18 02:18:09;;;;;;;7.35;1.70;;;25.20;51.10;;;;;;5046463;28;20049;-46
2021/09/18 02:20:37;;;;;;;1.42;1.33;;;25.30;51.20;;;;;;5047338;28;20136;-44
2021/09/18 02:23:05;;;;;;;2.25;0.88;;;25.20;51.10;;;;;;5045677;28;20088;-45
2021/09/18 02:25:32;;;;;;;1.35;0.63;;;25.20;51.10;;;;;;5045726;28;20045;-45
2021/09/18 02:27:59;;;;;;;0.88;0.88;;;25.20;51.10;;;;;;5046310;28;20037;-47
2021/09/18 02:30:29;;;;;;;0.70;0.70;;;25.20;51.10;;;;;;5046024;28;20037;-46
2021/09/18 02:32:58;;;;;;;0.95;0.63;;;25.20;51.20;;;;;;5044151;28;20041;-44
2021/09/18 02:35:27;;;;;;;1.10;0.90;;;25.20;51.10;;;;;;5046735;28;20053;-49
2021/09/18 02:37:55;;;;;;;0.82;0.63;;;25.20;51.10;;;;;;5045579;28;20039;-44
2021/09/18 02:40:24;;;;;;;0.55;0.55;;;25.20;51.20;;;;;;5045701;28;20129;-44
2021/09/18 02:42:53;;;;;;;1.67;0.90;;;25.20;51.20;;;;;;5046154;28;20047;-46
2021/09/18 02:45:21;;;;;;;0.73;0.73;;;25.20;51.10;;;;;;5034647;28;20120;-45
2021/09/18 02:47:49;;;;;;;0.90;0.80;;;25.20;51.30;;;;;;5047654;28;20048;-46
2021/09/18 02:50:19;;;;;;;0.95;0.52;;;25.20;50.90;;;;;;5045793;28;20033;-44
2021/09/18 02:52:46;;;;;;;0.57;0.40;;;25.20;50.90;;;;;;5037767;28;20129;-47
2021/09/18 02:55:14;;;;;;;0.68;0.52;;;25.20;50.80;;;;;;5036656;28;20763;-44
2021/09/18 02:57:41;;;;;;;1.05;0.63;;;25.10;50.60;;;;;;5046128;28;20082;-43
2021/09/18 03:00:10;;;;;;;0.90;0.55;;;25.10;50.60;;;;;;5045885;28;20124;-44
2021/09/18 03:02:38;;;;;;;0.80;0.60;;;25.10;50.50;;;;;;5045768;28;20041;-45
2021/09/18 03:05:07;;;;;;;1.95;0.80;;;25.10;50.50;;;;;;5045648;28;20045;-44
2021/09/18 03:07:36;;;;;;;1.30;0.60;;;25.10;50.50;;;;;;5041122;28;20067;-45
2021/09/18 03:10:04;;;;;;;2.42;0.57;;;25.20;50.60;;;;;;5045411;28;20037;-44
2021/09/18 03:12:31;;;;;;;1.70;0.98;;;25.10;50.60;;;;;;5045738;28;20041;-43
2021/09/18 03:14:58;;;;;;;0.57;0.57;;;25.10;50.60;;;;;;5046960;28;20045;-42
2021/09/18 03:17:25;;;;;;;1.23;0.82;;;25.10;50.60;;;;;;5046564;28;20118;-44
2021/09/18 03:19:53;;;;;;;0.57;0.57;;;25.10;50.60;;;;;;5045098;28;20029;-44
2021/09/18 03:22:22;;;;;;;0.90;0.90;;;25.10;50.60;;;;;;5045179;28;20527;-44
2021/09/18 03:24:50;;;;;;;6.07;0.50;;;25.10;50.60;;;;;;5045441;28;20064;-44
2021/09/18 03:27:17;;;;;;;2.63;0.80;;;25.10;50.60;;;;;;5044810;28;20049;-44
2021/09/18 03:29:44;;;;;;;0.70;0.70;;;25.10;50.60;;;;;;5047351;28;20037;-44
2021/09/18 03:32:12;;;;;;;0.45;0.45;;;25.10;50.60;;;;;;5043234;28;20037;-45
2021/09/18 03:34:39;;;;;;;2.33;0.82;;;25.10;50.70;;;;;;5043475;28;20036;-45
2021/09/18 03:37:06;;;;;;;4.82;0.85;;;25.10;50.60;;;;;;5043659;28;20528;-44
2021/09/18 03:39:34;;;;;;;2.17;0.90;;;25.10;50.60;;;;;;5044943;28;20049;-46
2021/09/18 03:42:03;;;;;;;1.50;0.82;;;25.10;50.60;;;;;;5045905;28;20412;-44
2021/09/18 03:44:30;;;;;;;3.45;0.63;;;25.10;50.60;;;;;;5044323;28;20505;-44
2021/09/18 03:46:58;;;;;;;1.02;1.02;;;25.10;50.60;;;;;;5045094;28;20076;-44
2021/09/18 03:49:25;;;;;;;3.78;0.30;;;25.10;50.60;;;;;;5045341;28;20165;-44
2021/09/18 03:51:52;;;;;;;1.75;0.70;;;25.10;50.50;;;;;;5043970;28;20401;-44
2021/09/18 03:54:19;;;;;;;0.70;0.70;;;25.10;50.40;;;;;;5045029;28;20125;-46
2021/09/18 03:56:46;;;;;;;3.35;0.95;;;25.10;50.40;;;;;;5046899;28;20470;-44
2021/09/18 03:59:15;;;;;;;2.50;0.50;;;25.10;50.30;;;;;;5045850;28;20041;-45
2021/09/18 04:01:42;;;;;;;1.05;0.52;;;25.10;50.30;;;;;;5048094;28;20127;-45
2021/09/18 04:04:09;;;;;;;0.70;0.38;;;25.10;50.80;;;;;;5047394;28;20040;-43
2021/09/18 04:06:36;;;;;;;0.65;0.65;;;25.10;50.20;;;;;;5048824;28;20428;-45
2021/09/18 04:09:03;;;;;;;1.02;0.60;;;25.00;50.10;;;;;;5049003;28;20056;-44
2021/09/18 04:11:31;;;;;;;1.38;0.50;;;25.10;50.10;;;;;;5049649;28;20045;-46
2021/09/18 04:13:58;;;;;;;0.77;0.40;;;25.00;50.00;;;;;;5047764;28;20047;-45
2021/09/18 04:16:26;;;;;;;0.50;0.50;;;25.00;50.00;;;;;;5048918;28;20043;-44
2021/09/18 04:18:53;;;;;;;0.50;0.50;;;25.00;50.00;;;;;;5046483;28;20049;-46
2021/09/18 04:21:20;;;;;;;0.57;0.57;;;25.00;49.90;;;;;;5048863;28;20135;-48
2021/09/18 04:23:47;;;;;;;0.77;0.63;;;25.00;49.90;;;;;;5050224;28;20041;-44
2021/09/18 04:26:15;;;;;;;1.58;0.60;;;25.00;49.90;;;;;;5048320;28;20558;-43
2021/09/18 04:28:42;;;;;;;0.30;0.30;;;25.00;49.90;;;;;;5048377;28;20032;-44
2021/09/18 04:31:09;;;;;;;0.55;0.50;;;25.00;49.90;;;;;;5048806;28;20037;-44
2021/09/18 04:33:38;;;;;;;0.50;0.50;;;25.00;49.90;;;;;;5048336;28;20501;-45
2021/09/18 04:36:05;;;;;;;3.53;0.75;;;25.00;49.90;;;;;;5048560;28;20712;-44
2021/09/18 04:38:32;;;;;;;1.02;0.60;;;25.00;49.90;;;;;;5049316;28;20506;-44
2021/09/18 04:40:59;;;;;;;0.47;0.47;;;25.00;49.90;;;;;;5048034;28;20751;-45
2021/09/18 04:43:26;;;;;;;0.43;0.43;;;25.00;49.90;;;;;;5045370;28;20041;-44
2021/09/18 04:45:53;;;;;;;0.70;0.65;;;25.00;49.80;;;;;;5042086;28;20041;-44
2021/09/18 04:48:20;;;;;;;1.00;0.73;;;25.00;49.80;;;;;;5047009;28;20048;-44
2021/09/18 04:50:49;;;;;;;0.40;0.40;;;25.00;49.80;;;;;;5047719;28;20421;-45
2021/09/18 04:53:16;;;;;;;0.50;0.40;;;25.00;49.80;;;;;;5045275;28;20033;-45
2021/09/18 04:55:43;;;;;;;0.80;0.65;;;25.00;49.80;;;;;;5045149;28;20099;-45
2021/09/18 04:58:10;;;;;;;0.70;0.68;;;25.00;50.00;;;;;;5045893;28;20045;-46
2021/09/18 05:00:38;;;;;;;4.35;0.70;;;25.00;49.80;;;;;;5046906;28;20033;-44
2021/09/18 05:03:05;;;;;;;1.60;0.60;;;25.00;49.80;;;;;;5041033;28;20125;-45
2021/09/18 05:05:32;;;;;;;0.63;0.63;;;25.00;49.80;;;;;;5046414;28;20041;-45
2021/09/18 05:08:00;;;;;;;1.55;0.57;;;25.00;49.70;;;;;;5045122;28;20047;-44
2021/09/18 05:10:27;;;;;;;4.22;1.02;;;25.00;49.70;;;;;;5047939;28;20048;-45
2021/09/18 05:12:55;;;;;;;3.00;1.10;;;25.00;49.80;;;;;;5044962;28;20541;-45
2021/09/18 05:15:22;;;;;;;1.00;0.63;;;25.00;49.80;;;;;;5045377;28;20048;-45
2021/09/18 05:17:49;;;;;;;3.55;0.85;;;25.00;49.90;;;;;;5047776;28;20200;-45
2021/09/18 05:20:17;;;;;;;4.68;0.98;;;25.00;49.90;;;;;;5042336;28;20517;-46
2021/09/18 05:22:44;;;;;;;2.25;0.80;;;25.00;50.00;;;;;;5043855;28;20036;-45
2021/09/18 05:25:12;;;;;;;1.98;0.90;;;25.00;50.00;;;;;;5044936;28;20069;-49
2021/09/18 05:27:39;;;;;;;0.90;0.90;;;25.00;49.90;;;;;;5045008;28;20041;-44
2021/09/18 05:30:08;;;;;;;1.67;0.65;;;25.00;49.90;;;;;;5043706;28;20087;-47
2021/09/18 05:32:35;;;;;;;2.45;1.02;;;25.00;49.90;;;;;;5045884;28;20033;-48
2021/09/18 05:35:03;;;;;;;0.70;0.47;;;25.00;49.90;;;;;;5040558;28;20456;-46
2021/09/18 05:37:30;;;;;;;1.80;0.73;;;25.00;49.80;;;;;;5042170;28;20045;-45
2021/09/18 05:39:57;;;;;;;0.70;0.50;;;25.00;49.90;;;;;;5046720;28;20047;-48
2021/09/18 05:42:25;;;;;;;1.48;0.43;;;25.00;49.90;;;;;;5035297;28;20044;-47
2021/09/18 05:44:52;;;;;;;2.67;1.30;;;25.00;50.00;;;;;;5042122;28;20041;-47
2021/09/18 05:47:19;;;;;;;1.17;0.40;;;25.00;50.00;;;;;;5043385;28;20072;-47
2021/09/18 05:49:46;;;;;;;2.35;0.68;;;25.10;50.10;;;;;;5045410;28;20114;-47
2021/09/18 05:52:13;;;;;;;2.08;0.68;;;25.20;50.10;;;;;;5042914;28;20060;-47
2021/09/18 05:54:40;;;;;;;2.50;0.75;;;25.30;50.00;;;;;;5046750;28;20132;-48
2021/09/18 05:57:07;;;;;;;8.18;0.73;;;25.30;49.90;;;;;;5045303;28;20047;-47
2021/09/18 05:59:36;;;;;;;1.60;0.45;;;25.40;49.80;;;;;;5048029;28;20493;-47
2021/09/18 06:02:03;;;;;;;1.25;0.45;;;25.50;49.80;;;;;;5037975;28;20626;-48
2021/09/18 06:04:30;;;;;;;0.77;0.77;;;25.60;49.60;;;;;;5046678;28;20413;-48
2021/09/18 06:06:57;;;;;;;4.05;0.68;;;25.60;49.40;;;;;;5045883;28;20049;-50
2021/09/18 06:09:24;;;;;;;6.32;1.10;;;25.70;49.50;;;;;;5031421;28;20045;-47
2021/09/18 06:11:51;;;;;;;7.15;1.90;;;25.60;49.60;;;;;;5048140;28;20509;-49
2021/09/18 06:14:18;;;;;;;4.53;1.63;;;25.70;49.80;;;;;;5046260;28;20049;-46
2021/09/18 06:16:47;;;;;;;4.80;1.40;;;25.60;49.80;;;;;;5046085;28;20037;-47
2021/09/18 06:19:18;;;;;;;1.70;0.82;;;25.60;49.90;;;;;;5046377;28;20517;-47
2021/09/18 06:21:45;;;;;;;6.50;2.17;;;25.60;49.90;;;;;;5046498;28;20583;-51
2021/09/18 06:24:13;;;;;;;3.20;0.65;;;25.50;49.80;;;;;;5045644;28;20122;-49
2021/09/18 06:26:41;;;;;;;5.55;1.02;;;25.50;49.90;;;;;;5047758;28;20051;-47
2021/09/18 06:29:08;;;;;;;5.05;1.60;;;25.50;50.00;;;;;;5046394;28;20036;-49
2021/09/18 06:31:35;;;;;;;1.23;0.75;;;25.40;49.90;;;;;;5046394;28;20049;-46
2021/09/18 06:34:04;;;;;;;2.05;0.60;;;25.40;50.00;;;;;;5046521;28;20037;-52
2021/09/18 06:36:31;;;;;;;1.17;0.98;;;25.40;50.10;;;;;;5045964;28;20064;-49
2021/09/18 06:38:59;;;;;;;1.45;1.10;;;25.30;50.00;;;;;;5046407;28;20065;-47
2021/09/18 06:41:26;;;;;;;1.55;1.45;;;25.30;50.10;;;;;;5047191;28;20040;-48
2021/09/18 06:43:53;;;;;;;5.18;1.05;;;25.30;50.10;;;;;;5045378;28;20604;-47
2021/09/18 06:46:20;;;;;;;2.15;0.95;;;25.30;50.00;;;;;;5045827;28;20131;-49
2021/09/18 06:48:47;;;;;;;3.22;1.23;;;25.20;49.90;;;;;;5046094;28;20067;-46
2021/09/18 06:51:16;;;;;;;0.70;0.70;;;25.30;50.00;;;;;;5046329;28;20049;-46
2021/09/18 06:53:43;;;;;;;2.08;1.05;;;25.20;50.00;;;;;;5047780;28;20044;-47
2021/09/18 06:56:10;;;;;;;1.30;0.93;;;25.20;49.90;;;;;;5046007;28;20033;-47
2021/09/18 06:58:37;;;;;;;2.05;0.63;;;25.10;49.90;;;;;;5045470;28;20051;-48
2021/09/18 07:01:04;;;;;;;0.70;0.52;;;25.10;49.80;;;;;;5046093;28;20517;-50
2021/09/18 07:03:31;;;;;;;0.85;0.52;;;25.20;49.80;;;;;;5045526;28;20484;-47
2021/09/18 07:05:58;;;;;;;3.40;0.60;;;25.10;49.70;;;;;;5046675;28;20048;-46
2021/09/18 07:08:26;;;;;;;2.50;0.50;;;25.10;49.70;;;;;;5046322;28;20051;-47
2021/09/18 07:10:53;;;;;;;2.97;0.55;;;25.10;49.60;;;;;;5042479;28;20049;-46
2021/09/18 07:13:21;;;;;;;0.60;0.45;;;25.10;49.60;;;;;;5045135;28;20838;-48
2021/09/18 07:15:48;;;;;;;0.73;0.73;;;25.10;49.50;;;;;;5044684;28;20150;-47
2021/09/18 07:18:15;;;;;;;0.90;0.50;;;25.10;50.20;;;;;;5045815;28;20048;-48
2021/09/18 07:20:43;;;;;;;4.22;0.88;;;25.10;49.50;;;;;;5047488;28;20068;-51
2021/09/18 07:23:10;;;;;;;3.97;1.40;;;25.10;49.60;;;;;;5036954;28;20041;-51
2021/09/18 07:25:38;;;;;;;0.60;0.50;;;25.10;49.60;;;;;;5039448;28;20091;-49
2021/09/18 07:28:06;;;;;;;1.08;0.70;;;25.10;49.60;;;;;;5045197;28;20037;-49
2021/09/18 07:30:34;;;;;;;1.20;0.63;;;25.10;49.50;;;;;;5045627;28;20045;-49
2021/09/18 07:33:01;;;;;;;0.70;0.70;;;25.10;49.60;;;;;;5046012;28;20040;-46
2021/09/18 07:35:28;;;;;;;1.27;0.70;;;25.10;49.60;;;;;;5047844;28;20111;-47
2021/09/18 07:37:58;;;;;;;2.05;0.52;;;25.10;49.50;;;;;;5048621;28;20136;-48
2021/09/18 07:40:25;;;;;;;3.47;0.60;;;25.10;49.50;;;;;;5049469;28;20521;-49
2021/09/18 07:42:53;;;;;;;2.58;0.32;;;25.10;49.50;;;;;;5049412;28;20044;-50
2021/09/18 07:45:20;;;;;;;1.02;0.55;;;25.20;49.50;;;;;;5049873;28;20523;-47
2021/09/18 07:47:48;;;;;;;0.98;0.43;;;25.20;49.50;;;;;;5049586;28;20053;-47
2021/09/18 07:50:15;;;;;;;1.17;0.52;;;25.10;49.30;;;;;;5049377;28;20151;-51
2021/09/18 07:52:42;;;;;;;0.90;0.57;;;25.20;49.40;;;;;;5049258;28;20053;-48
2021/09/18 07:55:10;;;;;;;1.33;0.60;;;25.20;49.40;;;;;;5049286;28;20043;-46
2021/09/18 07:57:38;;;;;;;1.85;0.80;;;25.20;49.30;;;;;;5048399;28;20036;-46
2021/09/18 08:00:08;;;;;;;1.67;0.93;;;25.20;49.30;;;;;;5049264;28;20063;-48
2021/09/18 08:02:36;;;;;;;2.95;0.88;;;25.20;49.10;;;;;;5047595;28;20041;-47
2021/09/18 08:05:03;;;;;;;0.50;0.50;;;25.20;49.00;;;;;;5048832;28;20037;-48
2021/09/18 08:07:30;;;;;;;0.52;0.52;;;25.30;49.00;;;;;;5048540;28;20053;-47
2021/09/18 08:09:58;;;;;;;2.92;0.52;;;25.30;48.90;;;;;;5048265;28;20047;-46
2021/09/18 08:12:26;;;;;;;0.82;0.52;;;25.30;48.70;;;;;;5034500;28;20051;-47
2021/09/18 08:14:53;;;;;;;1.17;0.50;;;25.20;48.50;;;;;;5050445;28;20053;-48
2021/09/18 08:17:22;;;;;;;0.38;0.38;;;25.20;48.40;;;;;;5048684;28;20124;-48
2021/09/18 08:19:49;;;;;;;3.33;0.70;;;25.20;48.30;;;;;;5048237;28;20048;-48
2021/09/18 08:22:16;;;;;;;6.30;0.38;;;25.30;48.50;;;;;;5048586;28;20087;-49
2021/09/18 08:24:43;;;;;;;1.40;0.63;;;25.30;48.40;;;;;;5048162;28;20124;-46
2021/09/18 08:27:11;;;;;;;1.05;0.52;;;25.30;48.30;;;;;;5047900;28;20053;-47
2021/09/18 08:29:38;;;;;;;0.47;0.32;;;25.30;48.30;;;;;;5048111;28;20045;-46
2021/09/18 08:32:05;;;;;;;1.40;0.38;;;25.30;48.20;;;;;;5047835;28;20052;-46
2021/09/18 08:34:33;;;;;;;0.82;0.35;;;25.30;48.20;;;;;;5048139;28;20574;-47
2021/09/18 08:37:00;;;;;;;0.80;0.20;;;25.30;48.10;;;;;;5047576;28;20053;-47
2021/09/18 08:39:27;;;;;;;0.57;0.40;;;25.30;48.60;;;;;;5048202;28;20068;-47
2021/09/18 08:41:55;;;;;;;1.20;0.55;;;25.30;48.00;;;;;;5049833;28;20136;-47
2021/09/18 08:44:22;;;;;;;0.73;0.40;;;25.30;47.90;;;;;;5048719;28;20166;-48
2021/09/18 08:46:49;;;;;;;1.35;0.80;;;25.30;47.90;;;;;;5047326;28;20044;-48
2021/09/18 08:49:18;;;;;;;1.42;0.30;;;25.30;47.90;;;;;;5047996;28;20088;-50
2021/09/18 08:51:46;;;;;;;0.60;0.50;;;25.30;47.90;;;;;;5048290;28;20037;-48
2021/09/18 08:54:14;;;;;;;1.05;0.40;;;25.30;47.90;;;;;;5046897;28;20132;-49
2021/09/18 08:56:41;;;;;;;2.10;0.30;;;25.30;47.90;;;;;;5043851;28;20041;-46
2021/09/18 08:59:08;;;;;;;3.13;0.45;;;25.30;47.80;;;;;;5047715;28;20072;-47
2021/09/18 09:01:35;;;;;;;0.45;0.30;;;25.30;47.80;;;;;;5047552;28;20040;-48
2021/09/18 09:04:07;;;;;;;1.05;0.30;;;25.30;47.80;;;;;;5047346;28;20041;-49
2021/09/18 09:06:44;;;;;;;0.38;0.20;;;25.30;47.80;;;;;;5047034;28;20582;-47
2021/09/18 09:09:12;;;;;;;0.85;0.28;;;25.30;47.70;;;;;;5047441;28;20049;-47
2021/09/18 09:11:48;;;;;;;1.95;0.25;;;25.30;48.40;;;;;;5047759;28;20043;-45
2021/09/18 09:14:15;;;;;;;0.30;0.30;;;25.30;47.70;;;;;;5047945;28;20049;-47
2021/09/18 09:16:56;;;;;;;0.32;0.32;;;25.30;47.70;;;;;;5047706;28;20037;-46
2021/09/18 09:19:23;;;;;;;0.73;0.30;;;25.30;47.70;;;;;;5047537;28;20137;-47
2021/09/18 09:21:53;;;;;;;0.30;0.10;;;25.40;47.80;;;;;;5047355;28;20191;-47
2021/09/18 09:24:23;;;;;;;0.38;0.20;;;25.30;47.70;;;;;;5047139;28;20115;-47
2021/09/18 09:27:09;;;;;;;0.28;0.28;;;25.30;47.70;;;;;;5049374;28;20041;-50
2021/09/18 09:29:43;;;;;;;2.53;0.20;;;25.40;47.80;;;;;;5048765;28;20052;-46
2021/09/18 09:32:28;;;;;;;1.23;0.20;;;25.40;47.90;;;;;;5045783;28;20037;-49
2021/09/18 09:34:56;;;;;;;0.68;0.30;;;25.40;47.80;;;;;;5046663;28;20132;-47
2021/09/18 09:37:24;;;;;;;0.20;0.13;;;25.40;47.90;;;;;;5046501;28;20033;-47
2021/09/18 09:39:54;;;;;;;1.67;0.50;;;25.40;47.90;;;;;;5047197;28;20127;-49
2021/09/18 09:42:27;;;;;;;0.95;0.30;;;25.40;47.80;;;;;;5046911;28;20073;-51
2021/09/18 09:44:54;;;;;;;0.63;0.47;;;25.50;47.80;;;;;;5044790;28;20044;-46
2021/09/18 09:47:23;;;;;;;1.15;0.55;;;25.50;47.80;;;;;;5047381;28;20049;-50
2021/09/18 09:49:57;;;;;;;0.95;0.28;;;25.50;47.60;;;;;;5046801;28;20048;-46
2021/09/18 09:52:26;;;;;;;2.50;0.30;;;25.50;47.40;;;;;;5046133;28;20040;-46
2021/09/18 09:54:58;;;;;;;0.30;0.30;;;25.50;47.50;;;;;;5046899;28;20791;-47
2021/09/18 09:57:25;;;;;;;1.70;0.20;;;25.60;47.60;;;;;;5046053;28;20112;-47
2021/09/18 09:59:58;;;;;;;2.10;0.15;;;25.60;47.60;;;;;;5043967;28;20037;-47
2021/09/18 10:02:25;;;;;;;0.77;0.35;;;25.60;47.50;;;;;;5046503;28;20052;-47
2021/09/18 10:04:53;;;;;;;0.13;0.13;;;25.60;47.60;;;;;;5045973;28;20064;-49
2021/09/18 10:07:20;;;;;;;1.27;0.38;;;25.60;47.60;;;;;;5045710;28;20095;-48
2021/09/18 10:09:48;;;;;;;2.33;0.30;;;25.60;47.50;;;;;;5044503;28;20049;-46
2021/09/18 10:12:17;;;;;;;0.17;0.17;;;25.70;47.60;;;;;;5046343;28;20045;-48
2021/09/18 10:14:49;;;;;;;1.48;0.20;;;25.70;47.60;;;;;;5048300;28;20048;-53
2021/09/18 10:17:17;;;;;;;1.85;0.30;;;25.70;47.50;;;;;;5046851;28;20116;-48
2021/09/18 10:25:42;;;;;;;0.57;0.20;;;25.80;47.60;;;;;;5045953;28;20083;-50
2021/09/18 10:28:12;;;;;;;1.20;0.25;;;25.80;47.60;;;;;;5046117;28;20049;-48
2021/09/18 10:30:42;;;;;;;2.95;0.40;;;25.90;47.60;;;;;;5045625;28;20495;-51
2021/09/18 10:33:34;;;;;;;0.50;0.30;;;25.90;47.60;;;;;;5046267;28;20060;-48
2021/09/18 10:36:05;;;;;;;0.50;0.47;;;25.90;47.30;;;;;;5043366;28;20140;-49
2021/09/18 10:38:34;;;;;;;0.43;0.20;;;25.90;47.50;;;;;;5047294;28;20033;-49
2021/09/18 10:41:06;;;;;;;3.05;0.20;;;25.90;47.40;;;;;;5043651;28;20096;-51
2021/09/18 10:43:36;;;;;;;0.20;0.20;;;25.90;47.30;;;;;;5045769;28;20286;-46
2021/09/18 10:46:06;;;;;;;3.15;0.30;;;26.00;47.20;;;;;;5045713;28;20049;-47
2021/09/18 10:48:36;;;;;;;1.08;0.30;;;26.00;47.10;;;;;;5045563;28;20075;-52
2021/09/18 10:51:03;;;;;;;0.45;0.45;;;26.00;47.10;;;;;;5046264;28;20053;-48
2021/09/18 10:54:10;;;;;;;0.30;0.20;;;26.10;47.00;;;;;;5080905;27;20974;-47
2021/09/18 10:57:05;;;;;;;1.17;0.30;;;26.10;47.10;;;;;;5082794;28;20586;-48
2021/09/18 10:59:50;;;;;;;0.30;0.25;;;26.10;46.90;;;;;;5071114;28;20457;-48
2021/09/18 11:02:46;;;;;;;0.20;0.15;;;26.10;46.80;;;;;;5069773;28;20394;-48
2021/09/18 11:05:49;;;;;;;0.20;0.20;;;26.20;46.90;;;;;;5107395;27;20418;-49
2021/09/18 11:08:35;;;;;;;0.20;0.20;;;26.20;46.80;;;;;;5104675;27;20388;-47
2021/09/18 11:11:23;;;;;;;0.82;0.30;;;26.20;46.90;;;;;;5069475;27;20453;-48
2021/09/18 11:14:05;;;;;;;1.40;0.25;;;26.20;46.70;;;;;;5090527;27;20868;-48
2021/09/18 11:16:45;;;;;;;0.70;0.25;;;26.20;47.20;;;;;;5074077;27;20476;-49
2021/09/18 11:19:25;;;;;;;0.20;0.20;;;26.20;46.60;;;;;;5074950;27;20449;-48
2021/09/18 11:22:13;;;;;;;0.70;0.40;;;26.30;46.50;;;;;;5079415;27;20463;-48
2021/09/18 11:24:53;;;;;;;0.30;0.30;;;26.30;46.40;;;;;;5100777;27;20338;-48
2021/09/18 11:27:35;;;;;;;0.90;0.32;;;26.30;46.40;;;;;;5141012;27;20398;-46
2021/09/18 11:30:02;;;;;;;1.60;0.40;;;26.30;46.40;;;;;;5128743;27;20813;-49
2021/09/18 11:32:42;;;;;;;2.25;0.35;;;26.30;46.30;;;;;;5116428;27;20444;-46
2021/09/18 11:35:21;;;;;;;0.43;0.30;;;26.40;46.30;;;;;;5059921;27;21303;-46
2021/09/18 11:38:02;;;;;;;0.93;0.30;;;26.40;46.20;;;;;;5118232;27;20444;-47
2021/09/18 11:40:42;;;;;;;0.28;0.20;;;26.40;46.20;;;;;;5093007;27;20393;-48
2021/09/18 11:43:28;;;;;;;0.20;0.17;;;26.40;46.10;;;;;;5096999;27;20397;-49
2021/09/18 11:46:09;;;;;;;0.77;0.28;;;26.50;46.20;;;;;;5098504;27;20483;-49
2021/09/18 11:48:58;;;;;;;0.30;0.30;;;26.50;46.80;;;;;;5080096;28;20844;-48
2021/09/18 11:51:37;;;;;;;0.40;0.20;;;26.50;46.00;;;;;;5122345;27;20390;-49
2021/09/18 11:54:17;;;;;;;1.75;0.28;;;26.50;46.00;;;;;;5123903;27;20731;-48
2021/09/18 11:57:10;;;;;;;0.38;0.30;;;26.50;46.00;;;;;;5085480;28;20393;-47
2021/09/18 11:59:50;;;;;;;0.20;0.20;;;26.60;46.00;;;;;;5068994;27;20406;-46
2021/09/18 12:02:33;;;;;;;0.17;0.17;;;26.60;46.00;;;;;;5061645;27;21196;-48
2021/09/18 12:05:19;;;;;;;0.52;0.30;;;26.60;45.90;;;;;;5089892;27;20471;-49
2021/09/18 12:07:59;;;;;;;0.20;0.20;;;26.70;45.90;;;;;;5073049;28;20398;-48
2021/09/18 12:10:39;;;;;;;0.63;0.30;;;26.70;45.90;;;;;;5073101;28;20488;-46
2021/09/18 12:13:23;;;;;;;1.98;0.30;;;26.70;45.80;;;;;;5079340;28;20937;-50
2021/09/18 12:16:03;;;;;;;1.05;0.45;;;26.70;45.80;;;;;;5119464;27;20431;-47
2021/09/18 12:18:44;;;;;;;0.10;0.10;;;26.80;45.90;;;;;;5081494;27;20981;-47
2021/09/18 12:21:26;;;;;;;0.95;0.20;;;26.80;45.90;;;;;;5100754;27;20381;-47
2021/09/18 12:24:07;;;;;;;0.20;0.20;;;26.80;45.80;;;;;;5020342;28;20386;-48
2021/09/18 12:26:48;;;;;;;0.77;0.30;;;26.80;45.80;;;;;;5084426;27;20385;-46
2021/09/18 12:29:28;;;;;;;0.20;0.13;;;26.90;45.80;;;;;;5067527;27;20448;-47
2021/09/18 12:32:08;;;;;;;0.20;0.20;;;26.90;45.70;;;;;;5090285;27;20455;-46
2021/09/18 12:34:48;;;;;;;0.45;0.15;;;26.90;45.50;;;;;;5071748;27;20391;-47
2021/09/18 12:37:30;;;;;;;0.20;0.20;;;27.00;45.60;;;;;;5075078;28;20434;-47
2021/09/18 12:40:18;;;;;;;0.20;0.20;;;27.00;45.50;;;;;;5077400;27;20399;-47
2021/09/18 12:43:13;;;;;;;0.10;0.10;;;27.00;45.50;;;;;;5079045;27;20383;-46
2021/09/18 12:46:05;;;;;;;1.55;0.20;;;27.00;45.40;;;;;;5079632;28;20394;-48
2021/09/18 12:48:44;;;;;;;0.65;0.22;;;27.10;45.40;;;;;;5080157;27;20394;-46
2021/09/18 12:51:24;;;;;;;0.20;0.20;;;27.10;45.30;;;;;;5080627;28;20445;-50
2021/09/18 12:54:04;;;;;;;0.50;0.20;;;27.10;45.30;;;;;;5104576;27;20387;-46
2021/09/18 12:56:43;;;;;;;0.50;0.20;;;27.10;45.30;;;;;;5084478;28;20385;-48
2021/09/18 12:59:23;;;;;;;0.10;0.10;;;27.10;45.70;;;;;;5096983;27;20409;-50
2021/09/18 13:02:03;;;;;;;0.10;0.10;;;27.10;45.20;;;;;;5070673;27;20398;-46
2021/09/18 13:04:45;;;;;;;0.45;0.45;;;27.10;45.20;;;;;;5076718;28;20988;-47
2021/09/18 13:07:26;;;;;;;0.20;0.13;;;27.20;45.20;;;;;;5096196;27;20413;-50
2021/09/18 13:10:07;;;;;;;0.10;0.10;;;27.20;45.10;;;;;;5077385;28;20434;-46
2021/09/18 13:12:47;;;;;;;0.60;0.40;;;27.20;45.20;;;;;;5082970;27;20451;-47